Ergebnisliste vom: 06.11.2004 - kleiner Sachsenlauf Coswig - 11,7 km

weitere Ergebnisse >>

Platz Pl.m Pl.w Stnr. Name,Vorname Verein GJ AK Akm AKw Endzeit RŘckstand
1 1   94 Eschler, Rene SV Elbland Coswig Mei├čen 75 M20 1   0:39:58 0:00:00
2 2   87 Gall, Thomas SV Elbland Coswig Mei├čen 70 M30 1   0:39:59 0:00:01
3 3   3 Kupfer, Andre RLSG Leisnig 72 M30 2   0:42:02 0:02:04
4 4   59 M├╝tze, Ingo SV Elbland Coswig Mei├čen 68 M35 1   0:43:14 0:03:16
5 5   109 Ullrich, Horst Langebr├╝ck 62 M40 1   0:43:35 0:03:37
6 6   126 Petzold, Reinhard Bautzener LV 52 M50 1   0:43:43 0:03:45
7 7   44 Jancker, Hans-Dieter SV Elbland Coswig-Mei├čen 52 M50 2   0:44:04 0:04:06
8 8   13 K├╝lper, Helmut TSV Dresden 58 M45 1   0:44:10 0:04:12
9 9   51 Schwarzer, J├╝rgen Frauenhain 84 M20 2   0:44:18 0:04:20
10 10   113 Hense, Axel Dresden 64 M40 2   0:44:28 0:04:30
11 11   128 Dreger, Jens SV Elbland Coswig Mei├čen 65 M35 2   0:44:37 0:04:39
12 12   103 Thiele, Hardi Radebeul 65 M35 3   0:45:08 0:05:10
13 13   112 Pospisil, Joachim SV Elbland Coswig-Mei├čen 58 M45 2   0:45:29 0:05:31
14 14   79 Schmidt, Sergej Gro├čenhain 74 M30 3   0:45:31 0:05:33
15 15   65 Rothe, Thomas Radeburg 59 M45 3   0:45:39 0:05:41
16 16   90 P├Ąge, J├Ârg   68 M35 4   0:45:44 0:05:46
17 17   102 Anker, Torsten Dresden 74 M30 4   0:45:59 0:06:01
18 18   89 Baum, Rolf SV Elbland Coswig-Mei├čen 53 M50 3   0:46:10 0:06:12
19 19   22 Preu├č, Olaf Traktor Ockrilla 61 M40 3   0:46:18 0:06:20
20 20   120 Eibner, Steve Wasserwacht Dresden Land 87 mJugend 1   0:46:26 0:06:28
21 21   69 Schacht, Wolfgang Planeta Radebeul 50 M50 4   0:46:42 0:06:44
22 22   81 Kotte, Heiko LG TuS Weinb├Âhla 68 M35 5   0:46:50 0:06:52
23 23   32 Markert, Franz SV Motor Gro├čenhain 89 mSch├╝ler 1   0:46:54 0:06:56
24 24   50 Schwarzer, Roland Frauenhain 85 mJugend 2   0:47:00 0:07:02
25 25   49 Schwarzer, Harald Frauenhain 61 M40 4   0:47:04 0:07:06
26 26   56 Krankowsky, Sven Schlamml├Ąufer 69 M35 6   0:47:10 0:07:12
27 27   4 Berger, Victor TuS Coswig 1920 53 M50 5   0:47:12 0:07:14
28 28   53 Ute├č, Dirk Dresden 78 M20 3   0:47:21 0:07:23
29 29   17 Effenberger, Marco TV Dresden 67 M35 7   0:47:36 0:07:38
30 30   104 G├Ąth, Rico Dresden 70 M30 5   0:47:38 0:07:40
31 31   119 Eibner, Reno Briesnitzer Sch├╝tzenverein 62 M40 5   0:47:40 0:07:42
32 32   137 Baas, Daniel Siebenlehner SV 87 mJugend 3   0:47:43 0:07:45
33 33   5 Brendel, Frank Coswig 59 M45 4   0:47:44 0:07:46
34 34   62 Fr├Âmmel, Andreas TuS Coswig 58 M45 5   0:48:08 0:08:10
35 35   15 Schliewa, Erik Sachsenlauf 87 mJugend 4   0:48:14 0:08:16
36 36   16 B├Âhme, Kai Gro├čenhain 70 M30 6   0:48:16 0:08:18
37 37   64 Salanga, Martin SV Fortschritt Oschatz 89 mSch├╝ler 2   0:48:25 0:08:27
38 38   115 Hettmann, Andreas Radebeul 70 M30 7   0:48:39 0:08:41
39 39   54 Richter, Frank Mei├čen 57 M45 6   0:48:50 0:08:52
40 40   25 Tempel, Hardy FKC Felsenbr├╝der 60 61 M40 6   0:48:55 0:08:57
41 41   63 Vieweg, Heino Wermsdorf 73 M30 8   0:49:00 0:09:02
42 42   95 Greinke, Thomas TuS Coswig Hallenfu├čball 68 M35 8   0:49:05 0:09:07
43 43   108 Schwan, Gunnar SV Elbland Coswig Mei├čen 65 M35 9   0:49:28 0:09:30
44 44   117 L├╝tzner, Ralf APF Laufteam 73 M30 9   0:49:33 0:09:35
45 45   138 Ludley, Mario PSV Riesa 69 M35 10   0:49:49 0:09:51
46 46   131 Scholz, Uwe Dresden 71 M30 10   0:49:53 0:09:55
47 47   107 Goedderz, Stefan SC Riesa 89 mSch├╝ler 3   0:49:58 0:10:00
48 48   73 K├╝hn, Ronald TC Wilde Gesellen 57 66 M35 11   0:50:00 0:10:02
48 48   135 T├Ąndler, J├Ârg Alte Herren Dresden 69 M35 11   0:50:00 0:10:02
50   1 38 Schr├Âder, Franziska Schlamml├Ąufer 77 W20/30   1 0:50:07 0:10:09
51 50   37 Steinike, Dirk Schlamml├Ąufer 70 M30 11   0:50:08 0:10:10
52 51   88 Zimmermann, Tilo Reichenberg 71 M30 12   0:50:10 0:10:12
53 52   66 Rox, Andreas Ebersbach 59 M45 7   0:50:15 0:10:17
54 53   110 Weiser, Jost Radebeul 58 M45 8   0:50:31 0:10:33
55   2 86 Lindig, Katrin SV Elbland Coswig Mei├čen 74 W20/30   2 0:50:36 0:10:38
56 54   41 Dewitz, Heiko D├Âbeln 64 M40 7   0:50:51 0:10:53
57 55   40 R├╝lker, Dieter Skizunft Dresden 39 M65 1   0:50:56 0:10:58
58   3 111 Drechsler, Anja Dresdner SV 1953 69 W35/40   1 0:50:58 0:11:00
59 56   96 Mei├čner, Frank Sportfreunde Ottendorf-Okrilla 65 M35 13   0:51:12 0:11:14
60   4 133 Horney, Andrea LG TuS Weinb├Âhla 82 W20/30   3 0:51:14 0:11:16
61 57   60 Schreiber, Wolfgang Waldbad Oberau 54 M50 6   0:51:19 0:11:21
62 58   91 Stoppa, Stephan SC Riesa 85 mJugend 5   0:51:27 0:11:29
63 59   76 Ahnert, Jens LG Coswig 67 M35 14   0:51:29 0:11:31
64 60   78 K├╝hn, Gerald SC Riesa 44 M60 1   0:51:39 0:11:41
65 61   47 Tonn, Konrad Planeta Radebeul 53 M50 7   0:51:50 0:11:52
66 62   46 Granz, Mirko LG TuS Weinb├Âhla 88 mJugend 6   0:51:56 0:11:58
67 63   92 Hofmann, Willi Dresden 90 mSch├╝ler 4   0:52:02 0:12:04
68   5 83 Wege, Rita TuS Coswig 52 W45/50   1 0:52:04 0:12:06
69 64   77 Gaube, Horst LG Asics Pirna 41 M60 2   0:52:16 0:12:18
70 65   28 Schiepek, Dieter KSV Heidenau 39 M65 2   0:52:17 0:12:19
71 66   116 Fischer, Gerd TuS Weinb├Âhla Handball 67 M35 15   0:52:19 0:12:21
72 67   68 Schneider, Steffen ESV Dresden 48 M55 1   0:52:35 0:12:37
73   6 58 Dachowicz, Carolin Dresden 64 W35/40   2 0:52:46 0:12:48
74 68   21 Oppermann, Reimund Traktor Ockrilla 64 M40 8   0:53:04 0:13:06
75 69   29 Barthe, Ingo Mei├čen 65 M35 16   0:53:06 0:13:08
76 70   52 Schmidt, Hans-Georg TSV Dresden 38 M65 3   0:53:09 0:13:11
77 71   45 Sch├╝tzka, Georg LG TuS Weinb├Âhla 86 mJugend 7   0:53:20 0:13:22
78 72   136 Niese, Toralf Team Handke 71 M30 13   0:53:24 0:13:26
79 73   26 Hartwig Dr., Wolf-Henning SG Dresdner Bank 43 M60 3   0:53:36 0:13:38
80 74   55 Rost, Michael LG TuS Weinb├Âhla 48 M55 2   0:54:01 0:14:03
81   7 57 Tr├Ąger, Anne Coswig 72 W20/30   4 0:54:27 0:14:29
82 75   43 Dewitz, Toni D├Âbelner SC 91 mSch├╝ler 5   0:54:45 0:14:47
83   8 127 Petzold, Tina WSV Neptun Bautzen 76 W20/30   5 0:54:55 0:14:57
84   9 93 Hofmann, Katrin TSV Dresden 67 W35/40   3 0:55:00 0:15:02
85 76   10 Bickhardt, Frieder LG TuS Weinb├Âhla 87 mJugend 8   0:55:47 0:15:49
86 77   132 Kern, Sebastian Altenburg 78 M20 4   0:55:48 0:15:50
87   10 124 Mai, Lisa SV Elbland Coswig Mei├čen 90 wSch├╝ler   1 0:55:51 0:15:53
88 78   140 Schmidt, Bernd   57 M45 9   0:56:50 0:16:52
89 79   75 Clau├č, Uwe Berlin 63 M40 9   0:56:57 0:16:59
90 80   30 Hauptvogel, Olaf Lok Hainsberg 64 M40 10   0:57:05 0:17:07
91   11 67 Kopatz, Manuela Coswiger BFV 76 W20/30   6 0:57:08 0:17:10
92 81   74 Clau├č, Lutz Laufgruppe Coswig 65 M35 17   0:57:11 0:17:13
93   12 42 Dewitz, Silke D├Âbeln 67 W35/40   4 0:57:17 0:17:19
94 82   72 Kleber, Uwe KG Bergbanane 65 M35 18   0:57:28 0:17:30
95   13 33 Prokupek, Kathrin Motor Gro├čenhain 65 W35/40   5 0:57:32 0:17:34
96 83   1 Paul, Wilhelm SSV Neustadt 34 M70 1   0:57:41 0:17:43
97 84   121 Hilbert, Peter APF Laufclub 58 M45 10   0:57:42 0:17:44
98 85   80 Dobrowolski, Boris VC Radebeul 58 M45 11   0:58:06 0:18:08
99 86   48 Zwar, Wolfgang SV Elbland Coswig Mei├čen 58 M45 12   0:58:28 0:18:30
100   14 106 Goedderz, Christin SC Riesa 84 W20/30   7 0:58:29 0:18:31
100 87   125 Kuste, Thomas   80 M20 5   0:58:29 0:18:31
102 88   118 Herold, Rainer Radebeul 48 M55 3   0:58:31 0:18:33
103 89   105 Engelmann, Helmut LG Coswig 47 M55 4   0:58:42 0:18:44
104 90   70 Leuschke, Matthias Coswig 61 M40 11   0:58:45 0:18:47
105   15 23 Urban, Kerstin BSV Chemie Radebeul 69 W35/40   6 0:58:59 0:19:01
106 91   14 Schliewa, Bernd Sachsenlauf 63 M40 12   0:59:14 0:19:16
107   16 18 Herrmann, Regina BSV Chemie Radebeul 55 W45/50   2 0:59:30 0:19:32
108 92   2 Nichterlein, Klaus Diera 44 M60 4   0:59:49 0:19:51
109 93   114 Hannecke, Klaus Weinb├Âhla 41 M60 5   1:00:04 0:20:06
110   17 24 Lehmann, Birgit BSV Chemie Radebeul 64 W35/40   7 1:00:23 0:20:25
111 94   36 Felker, Andreas Weinb├Âhla 64 M40 13   1:00:30 0:20:32
112 95   99 Jarosch, Wolfgang Radebeul 59 M45 13   1:00:37 0:20:39
113 96   71 Heinrich, Dietmar SV Elbland Coswig Mei├čen 47 M55 5   1:00:40 0:20:42
114 97   101 Matthes, Bernd Mei├čen 41 M60 6   1:00:58 0:21:00
115 98   134 Rogel, Joachim SC Riesa 43 M60 7   1:01:31 0:21:33
116   18 6 Kluttig, Ulrike SV Elbland Coswig Mei├čen 69 W35/40   8 1:01:40 0:21:42
117   19 11 Beutel, Christina SV Elbland Coswig Mei├čen 89 wSch├╝ler   2 1:01:52 0:21:54
118 99   97 Sch├╝tze, Wolfgang Skiklub Dresden Niedersedlitz 42 M60 8   1:02:03 0:22:05
119   20 20 Bubrau, Renate VfL Dresden-B├╝hlau 41 W55/60   1 1:02:21 0:22:23
120   21 34 Messerschmidt, Iris Radeburg 60 W35/40   9 1:02:24 0:22:26
121 100   61 Liebmann, Wieland Mei├čen 67 M35 19   1:04:00 0:24:02
122   22 9 Ehrlich, Carola SG Gro├čr├Âhrsdorf 62 W35/40   10 1:04:48 0:24:50
123 101   122 Mai, Roberto SV Elbland Coswig Mei├čen 64 M40 14   1:05:24 0:25:26
124 102   139 Jankovics, Laszlo LRV Hohenbocka 55 M45 14   1:07:29 0:27:31
125 103   84 Engemann, Klaus ESV Lok D├Âbeln 38 M65 4   1:07:50 0:27:52
126 104   98 Herzog, Wolfgang Mei├čen 49 M55 6   1:07:57 0:27:59
127   23 19 L├╝dicke, Annemarie BSV Chemie Radebeul 43 W55/60   2 1:08:24 0:28:26
128 105   130 Meier, Friedhard Niederau 53 M50 8   1:08:53 0:28:55
129 106   82 Sachs, Ulrich Coswig 44 M60 9   1:09:23 0:29:25
130   24 35 Hilbert, Beate Radeburg 63 W35/40   11 1:11:10 0:31:12
131   25 129 Meier, Doris Niederau 54 W45/50   3 1:12:15 0:32:17
132 107   7 Winkler, Karlheinz Dresden 38 M65 5   1:14:08 0:34:10
133   26 100 Greim, Jeanette LG TuS Weinb├Âhla 83 W20/30   8 1:14:18 0:34:20
134   27 12 Gei├čmar, Sandra SV Elbland Coswig Mei├čen 88 wJugend   1 1:15:41 0:35:43
134   27 123 Mai, Ina SV Elbland Coswig Mei├čen 91 wSch├╝ler   3 1:15:41 0:35:43
136 108   85 Schwan, G├╝nter RSLV Weinb├Âhla 34 M70 2   1:16:14 0:36:16
137   29 27 Hartwig, Karin SG Dresdner Bank 45 W55/60   3 1:16:25 0:36:27
138   30 39 Albrecht, Claudia Speedskate Club Mei├čen 83 W20/30   9 1:22:45 0:42:47
139 109   8 Gl├Âckner, Hermann VfL Dresden-B├╝hlau 28 M75+ 1   1:27:12 0:47:14
140 110   31 Wuschick, Werner DAV SBB Dresden 25 M75+ 2   1:29:16 0:49:18
(c) 1990-2020 Blue Wonder Sport Promotion - Andreas Burow - Zeitnahme & Auswertung - www.Triathlon-Service.de